Weather observations for the past three days for
Tulsa, Tulsa International Airport
Metric (Imperial)
Date Time (cdt) Wind (kph) Vis. (km) Weather Sky Cond. Temperature (ºC) Relative Humidity Wind Chill (°C) Heat Index (°C) Pressure Precipitation (cm)
Air Dwpt 6 hour altimeter (cm) sea level (mb) 1 hr 3 hr 6 hr
Max. Min.
31 05:53 S 11 16.09 A Few Clouds FEW250 26.1 16.7 56% 27 76.15 1013.9
31 04:53 S 17 16.09 A Few Clouds FEW250 27.2 16.7 53% 28 76.1 1013.5
31 03:53 S 19 16.09 A Few Clouds FEW250 27.8 16.7 51% 28 76.1 1013.2
31 02:53 S 19 16.09 A Few Clouds FEW250 28.9 16.7 48% 29 76.07 1013.0
31 01:53 S 17 16.09 A Few Clouds FEW250 29.4 16.7 46% 30 76.07 1013.0
31 00:53 SE 15 16.09 A Few Clouds FEW250 27.2 16.7 37.2 26.7 53% 28 76.05 1012.8
30 23:53 S 15 16.09 A Few Clouds FEW250 30.6 16.1 42% 31 76.02 1012.3
30 22:53 S 17 16.09 A Few Clouds FEW250 31.1 15.6 39% 31 76 1012.2
30 21:53 S 15 16.09 A Few Clouds FEW250 32.8 15 34% 32 75.97 1012.0
30 20:53 SE 13 16.09 A Few Clouds FEW250 33.3 15 33% 33 75.92 1011.1
30 19:53 SE 13 16.09 A Few Clouds FEW250 35.6 15 29% 35 75.9 1010.7
30 18:53 S 20 G 37 16.09 A Few Clouds FEW250 37.2 15.6 38.9 36.1 28% 37 75.9 1010.8
30 17:53 S 24 G 39 16.09 A Few Clouds FEW085 FEW250 38.3 15.6 26% 39 75.9 1010.6
30 16:53 S 22 G 35 16.09 Partly Cloudy FEW090 SCT250 38.3 16.1 27% 39 75.92 1010.9
30 15:53 S 15 G 35 16.09 Partly Cloudy FEW090 SCT250 38.9 16.1 26% 40 75.95 1011.5
30 14:53 Calm 16.09 Mostly Cloudy SCT085 BKN250 37.2 16.1 29% 38 76.02 1012.3
30 13:53 S 24 16.09 Mostly Cloudy FEW045 BKN250 37.2 17.2 31% 38 76.05 1012.8
30 12:53 S 22 G 35 16.09 Mostly Cloudy BKN250 36.1 18.3 36.1 24.4 35% 38 76.1 1013.5
30 11:53 SW 17 G 39 16.09 Mostly Cloudy BKN250 34.4 18.9 40% 36 76.17 1014.4
30 10:53 S 20 16.09 Mostly Cloudy BKN250 32.2 18.3 44% 33 76.2 1014.7
30 09:53 S 28 16.09 Partly Cloudy SCT250 30 17.8 48% 31 76.2 1014.8
30 08:53 S 22 G 35 16.09 Partly Cloudy SCT250 27.2 16.1 51% 28 76.23 1015.0
30 07:53 S 13 16.09 A Few Clouds FEW250 25.6 16.7 58% 26 76.2 1014.9
30 06:53 S 13 16.09 A Few Clouds FEW250 24.4 16.7 29.4 24.4 62% 25 76.17 1014.6
30 05:53 SE 17 16.09 A Few Clouds FEW250 25 16.7 60% 26 76.17 1014.5
30 04:53 S 13 16.09 A Few Clouds FEW250 25.6 16.7 58% 26 76.15 1014.1
30 03:53 S 13 16.09 Partly Cloudy SCT250 26.7 16.7 54% 27 76.12 1013.6
30 02:53 S 15 16.09 Partly Cloudy SCT250 27.8 16.1 49% 28 76.1 1013.3
30 01:53 S 17 16.09 Partly Cloudy SCT250 28.3 15.6 46% 28 76.1 1013.4
30 00:53 S 17 16.09 Partly Cloudy SCT250 29.4 15.6 37.2 29.4 43% 29 76.1 1013.5
29 23:53 SE 22 16.09 Partly Cloudy SCT250 30.6 15 39% 30 76.1 1013.4
29 22:53 SE 24 G 33 16.09 Partly Cloudy SCT250 32.2 15 35% 32 76.07 1013.3
29 21:53 SE 15 16.09 A Few Clouds FEW250 32.8 15 34% 32 76.07 1013.0
29 20:53 SE 9 16.09 Partly Cloudy SCT250 31.1 16.1 40% 31 76 1012.3
29 19:53 SE 15 16.09 Partly Cloudy FEW100 SCT250 35 16.7 34% 35 75.97 1012.0
29 18:53 S 19 16.09 Mostly Cloudy FEW110 SCT200 BKN250 37.2 15.6 37.8 35 28% 37 76 1012.0
29 17:53 S 22 16.09 Mostly Cloudy FEW100 SCT200 BKN250 37.2 15.6 28% 37 76 1012.2
29 16:53 S 17 16.09 Mostly Cloudy SCT100 BKN200 37.2 17.2 31% 38 76.02 1012.5
29 15:53 S 13 G 31 16.09 Mostly Cloudy FEW075 SCT200 BKN250 37.2 18.3 33% 39 76.1 1013.4
29 14:53 S 11 G 33 16.09 Mostly Cloudy FEW050 SCT200 BKN250 37.2 18.3 33% 39 76.15 1014.1
29 13:53 S 19 G 37 16.09 Mostly Cloudy FEW200 BKN250 36.1 19.4 37% 38 76.2 1015.0
29 12:53 S 24 G 33 16.09 Mostly Cloudy FEW200 BKN250 35 19.4 35 23.9 40% 37 76.28 1015.9
29 11:53 SE 19 16.09 Mostly Cloudy FEW200 BKN250 33.3 19.4 44% 35 76.35 1016.9
29 10:53 S 19 16.09 Mostly Cloudy FEW200 BKN250 30 18.9 51% 31 76.38 1017.3
29 09:53 S 20 16.09 Mostly Cloudy FEW100 SCT200 BKN250 28.3 18.3 55% 29 76.38 1017.4
29 08:53 S 13 16.09 Mostly Cloudy BKN250 26.7 17.2 56% 27 76.4 1017.5
29 07:53 S 13 16.09 Mostly Cloudy BKN250 25 16.1 58% 26 76.4 1017.6
29 06:53 S 13 16.09 Partly Cloudy FEW150 SCT250 23.9 15.6 26.7 23.9 60% 25 76.35 1017.0
29 05:53 S 13 16.09 Partly Cloudy SCT250 25 15.6 56% 26 76.35 1016.8
29 04:53 S 19 16.09 A Few Clouds FEW250 25.6 15.6 54% 26 76.33 1016.5
29 03:53 S 17 16.09 A Few Clouds FEW250 26.1 15.6 52% 27 76.3 1016.3
29 02:53 SE 19 16.09 Fair CLR 26.1 15.6 52% 27 76.3 1016.3
29 01:53 SE 15 16.09 Fair CLR 26.1 15.6 52% 27 76.3 1016.4
29 00:53 SE 15 16.09 Fair CLR 25.6 14.4 34.4 23.3 50% 26 76.33 1016.5
28 23:53 Calm 16.09 Fair CLR 25 16.1 58% 26 76.33 1016.6
28 22:53 Calm 16.09 Fair CLR 28.3 14.4 43% 28 76.33 1016.6
28 21:53 SE 6 16.09 Fair CLR 27.8 15 46% 28 76.3 1016.3
28 20:53 E 7 16.09 Fair CLR 28.9 15 43% 29 76.25 1015.7
28 19:53 E 7 16.09 Fair CLR 31.7 13.3 33% 31 76.23 1015.4
28 18:53 E 7 16.09 Fair CLR 35 11.1 36.7 33.3 23% 33 76.23 1015.4
28 17:53 Calm 16.09 Fair CLR 35.6 10.6 22% 34 76.23 1015.4
28 16:53 S 6 16.09 A Few Clouds FEW250 36.1 11.1 22% 35 76.25 1015.7
28 15:53 SE 6 16.09 A Few Clouds FEW250 36.1 11.7 23% 35 76.33 1016.5
28 14:53 Vrbl 6 16.09 A Few Clouds FEW250 35 10.6 23% 33 76.38 1017.4
28 13:53 E 7 16.09 Partly Cloudy SCT250 34.4 12.2 26% 33 76.43 1017.9
28 12:53 NE 11 16.09 Mostly Cloudy BKN250 33.9 15.6 33.9 16.7 33% 34 76.48 1018.7
28 11:53 Vrbl 7 16.09 Mostly Cloudy BKN250 33.3 16.7 37% 34 76.5 1019.0
28 10:53 Calm 16.09 Mostly Cloudy BKN250 29.4 16.7 46% 30 76.53 1019.4
28 09:53 Calm 16.09 Mostly Cloudy FEW160 BKN250 26.7 16.7 54% 27 76.53 1019.3
28 08:53 Calm 16.09 Mostly Cloudy SCT160 BKN250 22.8 16.7 69% 76.53 1019.5
28 06:53 NW 6 16.09 Partly Cloudy FEW160 SCT250 17.8 15.6 22.8 16.7 87% 76.45 1018.5
Date Time (cdt) Wind (kph) Vis. (km) Weather Sky Cond. Air Dwpt Max. Min. Relative Humidity Wind Chill (°C) Heat Index (°C) altimeter (cm) sea level (mb) 1 hr 3 hr 6 hr
6 hour
Temperature (ºC) Pressure Precipitation (cm)